sensor_id;sensor_type;location;lat;lon;timestamp;P1;durP1;ratioP1;P2;durP2;ratioP2
64598;SDS011;51008;51.504;11.548;2023-05-10T00:02:37;12.73;;;7.60;;
64598;SDS011;51008;51.504;11.548;2023-05-10T00:07:38;12.15;;;7.15;;
64598;SDS011;51008;51.504;11.548;2023-05-10T00:12:39;13.88;;;8.10;;
64598;SDS011;51008;51.504;11.548;2023-05-10T00:17:40;13.25;;;7.25;;
64598;SDS011;51008;51.504;11.548;2023-05-10T00:22:41;13.63;;;7.72;;
64598;SDS011;51008;51.504;11.548;2023-05-10T00:27:42;25.02;;;10.65;;
64598;SDS011;51008;51.504;11.548;2023-05-10T00:32:43;22.50;;;10.48;;
64598;SDS011;51008;51.504;11.548;2023-05-10T00:37:44;13.50;;;7.53;;
64598;SDS011;51008;51.504;11.548;2023-05-10T00:42:45;14.75;;;8.02;;
64598;SDS011;51008;51.504;11.548;2023-05-10T00:47:46;13.15;;;8.15;;
64598;SDS011;51008;51.504;11.548;2023-05-10T00:52:47;13.52;;;7.35;;
64598;SDS011;51008;51.504;11.548;2023-05-10T00:57:48;14.25;;;8.43;;
64598;SDS011;51008;51.504;11.548;2023-05-10T01:02:49;18.70;;;8.80;;
64598;SDS011;51008;51.504;11.548;2023-05-10T01:07:50;14.88;;;8.10;;
64598;SDS011;51008;51.504;11.548;2023-05-10T01:12:51;14.50;;;8.23;;
64598;SDS011;51008;51.504;11.548;2023-05-10T01:17:52;15.75;;;9.05;;
64598;SDS011;51008;51.504;11.548;2023-05-10T01:23:03;12.93;;;8.25;;
64598;SDS011;51008;51.504;11.548;2023-05-10T01:33:59;14.20;;;8.35;;
64598;SDS011;51008;51.504;11.548;2023-05-10T01:39:11;19.23;;;8.88;;
64598;SDS011;51008;51.504;11.548;2023-05-10T01:44:20;15.10;;;8.43;;
64598;SDS011;51008;51.504;11.548;2023-05-10T01:49:25;15.18;;;9.23;;
64598;SDS011;51008;51.504;11.548;2023-05-10T01:54:29;15.32;;;8.88;;
64598;SDS011;51008;51.504;11.548;2023-05-10T01:59:34;14.88;;;8.38;;
64598;SDS011;51008;51.504;11.548;2023-05-10T02:04:37;18.20;;;9.55;;
64598;SDS011;51008;51.504;11.548;2023-05-10T02:09:40;16.48;;;9.07;;
64598;SDS011;51008;51.504;11.548;2023-05-10T02:19:45;14.18;;;8.38;;
64598;SDS011;51008;51.504;11.548;2023-05-10T02:24:48;16.40;;;8.75;;
64598;SDS011;51008;51.504;11.548;2023-05-10T02:29:51;13.88;;;8.60;;
64598;SDS011;51008;51.504;11.548;2023-05-10T02:34:53;19.92;;;9.82;;
64598;SDS011;51008;51.504;11.548;2023-05-10T02:39:56;16.20;;;8.75;;
64598;SDS011;51008;51.504;11.548;2023-05-10T02:44:59;19.02;;;9.10;;
64598;SDS011;51008;51.504;11.548;2023-05-10T02:50:01;14.70;;;8.75;;
64598;SDS011;51008;51.504;11.548;2023-05-10T02:55:02;14.10;;;8.93;;
64598;SDS011;51008;51.504;11.548;2023-05-10T03:00:06;14.23;;;9.60;;
64598;SDS011;51008;51.504;11.548;2023-05-10T03:05:07;16.52;;;8.77;;
64598;SDS011;51008;51.504;11.548;2023-05-10T03:10:09;17.08;;;9.38;;
64598;SDS011;51008;51.504;11.548;2023-05-10T03:15:15;16.40;;;9.60;;
64598;SDS011;51008;51.504;11.548;2023-05-10T03:20:28;13.30;;;8.48;;
64598;SDS011;51008;51.504;11.548;2023-05-10T03:25:32;16.63;;;9.60;;
64598;SDS011;51008;51.504;11.548;2023-05-10T03:30:34;14.73;;;9.23;;
64598;SDS011;51008;51.504;11.548;2023-05-10T03:35:36;16.38;;;9.38;;
64598;SDS011;51008;51.504;11.548;2023-05-10T03:40:38;21.40;;;11.23;;
64598;SDS011;51008;51.504;11.548;2023-05-10T03:45:40;22.15;;;11.15;;
64598;SDS011;51008;51.504;11.548;2023-05-10T03:50:41;25.60;;;11.73;;
64598;SDS011;51008;51.504;11.548;2023-05-10T03:55:42;21.52;;;11.60;;
64598;SDS011;51008;51.504;11.548;2023-05-10T04:00:43;21.25;;;10.98;;
64598;SDS011;51008;51.504;11.548;2023-05-10T04:05:45;22.48;;;9.75;;
64598;SDS011;51008;51.504;11.548;2023-05-10T04:10:46;16.30;;;9.40;;
64598;SDS011;51008;51.504;11.548;2023-05-10T04:15:47;22.55;;;10.25;;
64598;SDS011;51008;51.504;11.548;2023-05-10T04:20:48;13.55;;;8.55;;
64598;SDS011;51008;51.504;11.548;2023-05-10T04:25:49;16.10;;;10.13;;
64598;SDS011;51008;51.504;11.548;2023-05-10T04:30:50;17.65;;;9.63;;
64598;SDS011;51008;51.504;11.548;2023-05-10T04:35:51;18.42;;;8.95;;
64598;SDS011;51008;51.504;11.548;2023-05-10T04:40:52;17.10;;;9.93;;
64598;SDS011;51008;51.504;11.548;2023-05-10T04:45:55;15.30;;;8.90;;
64598;SDS011;51008;51.504;11.548;2023-05-10T04:50:57;14.30;;;8.63;;
64598;SDS011;51008;51.504;11.548;2023-05-10T04:55:58;19.40;;;9.07;;
64598;SDS011;51008;51.504;11.548;2023-05-10T05:01:05;15.45;;;9.10;;
64598;SDS011;51008;51.504;11.548;2023-05-10T05:06:06;15.95;;;8.98;;
64598;SDS011;51008;51.504;11.548;2023-05-10T05:11:07;22.83;;;9.63;;
64598;SDS011;51008;51.504;11.548;2023-05-10T05:16:08;14.95;;;9.05;;
64598;SDS011;51008;51.504;11.548;2023-05-10T05:21:13;25.17;;;9.43;;
64598;SDS011;51008;51.504;11.548;2023-05-10T05:26:17;17.52;;;9.13;;
64598;SDS011;51008;51.504;11.548;2023-05-10T05:31:18;14.43;;;9.75;;
64598;SDS011;51008;51.504;11.548;2023-05-10T05:36:19;17.98;;;8.82;;
64598;SDS011;51008;51.504;11.548;2023-05-10T05:41:20;17.30;;;9.10;;
64598;SDS011;51008;51.504;11.548;2023-05-10T05:46:21;12.25;;;8.32;;
64598;SDS011;51008;51.504;11.548;2023-05-10T05:51:22;15.00;;;9.90;;
64598;SDS011;51008;51.504;11.548;2023-05-10T05:56:23;14.07;;;9.13;;
64598;SDS011;51008;51.504;11.548;2023-05-10T06:01:24;18.38;;;9.48;;
64598;SDS011;51008;51.504;11.548;2023-05-10T06:06:25;18.48;;;9.00;;
64598;SDS011;51008;51.504;11.548;2023-05-10T06:11:26;16.23;;;8.85;;
64598;SDS011;51008;51.504;11.548;2023-05-10T06:16:27;16.13;;;8.35;;
64598;SDS011;51008;51.504;11.548;2023-05-10T06:21:28;14.13;;;8.40;;
64598;SDS011;51008;51.504;11.548;2023-05-10T06:26:29;14.43;;;8.77;;
64598;SDS011;51008;51.504;11.548;2023-05-10T06:31:30;18.23;;;9.50;;
64598;SDS011;51008;51.504;11.548;2023-05-10T06:36:31;23.35;;;8.43;;
64598;SDS011;51008;51.504;11.548;2023-05-10T06:41:32;17.75;;;7.88;;
64598;SDS011;51008;51.504;11.548;2023-05-10T06:46:33;12.43;;;7.50;;
64598;SDS011;51008;51.504;11.548;2023-05-10T06:51:34;12.23;;;5.88;;
64598;SDS011;51008;51.504;11.548;2023-05-10T06:56:34;11.05;;;6.03;;
64598;SDS011;51008;51.504;11.548;2023-05-10T07:01:35;12.15;;;5.95;;
64598;SDS011;51008;51.504;11.548;2023-05-10T07:06:36;10.05;;;5.68;;
64598;SDS011;51008;51.504;11.548;2023-05-10T07:11:37;13.73;;;6.05;;
64598;SDS011;51008;51.504;11.548;2023-05-10T07:16:38;10.88;;;5.82;;
64598;SDS011;51008;51.504;11.548;2023-05-10T07:21:39;8.95;;;6.15;;
64598;SDS011;51008;51.504;11.548;2023-05-10T07:26:40;12.27;;;5.47;;
64598;SDS011;51008;51.504;11.548;2023-05-10T07:31:41;19.95;;;6.03;;
64598;SDS011;51008;51.504;11.548;2023-05-10T07:36:42;10.48;;;5.47;;
64598;SDS011;51008;51.504;11.548;2023-05-10T07:41:43;9.95;;;5.90;;
64598;SDS011;51008;51.504;11.548;2023-05-10T07:46:44;13.13;;;6.00;;
64598;SDS011;51008;51.504;11.548;2023-05-10T07:51:45;9.80;;;5.72;;
64598;SDS011;51008;51.504;11.548;2023-05-10T07:56:46;9.88;;;5.63;;
64598;SDS011;51008;51.504;11.548;2023-05-10T08:01:47;10.45;;;5.35;;
64598;SDS011;51008;51.504;11.548;2023-05-10T08:06:48;7.35;;;5.25;;
64598;SDS011;51008;51.504;11.548;2023-05-10T08:11:49;8.02;;;5.20;;
64598;SDS011;51008;51.504;11.548;2023-05-10T08:16:50;18.67;;;5.15;;
64598;SDS011;51008;51.504;11.548;2023-05-10T08:21:52;8.18;;;4.38;;
64598;SDS011;51008;51.504;11.548;2023-05-10T08:26:53;8.35;;;4.57;;
64598;SDS011;51008;51.504;11.548;2023-05-10T08:31:53;7.32;;;4.65;;
64598;SDS011;51008;51.504;11.548;2023-05-10T08:36:54;6.43;;;4.90;;
64598;SDS011;51008;51.504;11.548;2023-05-10T08:41:55;9.65;;;5.43;;
64598;SDS011;51008;51.504;11.548;2023-05-10T08:47:02;6.72;;;4.78;;
64598;SDS011;51008;51.504;11.548;2023-05-10T08:52:05;9.07;;;4.93;;
64598;SDS011;51008;51.504;11.548;2023-05-10T08:57:07;8.52;;;4.82;;
64598;SDS011;51008;51.504;11.548;2023-05-10T09:02:09;9.57;;;5.13;;
64598;SDS011;51008;51.504;11.548;2023-05-10T09:07:12;8.88;;;5.47;;
64598;SDS011;51008;51.504;11.548;2023-05-10T09:12:13;9.35;;;5.75;;
64598;SDS011;51008;51.504;11.548;2023-05-10T09:17:14;11.50;;;5.90;;
64598;SDS011;51008;51.504;11.548;2023-05-10T09:22:15;8.00;;;5.30;;
64598;SDS011;51008;51.504;11.548;2023-05-10T09:27:17;8.27;;;5.22;;
64598;SDS011;51008;51.504;11.548;2023-05-10T09:32:43;7.13;;;4.57;;
64598;SDS011;51008;51.504;11.548;2023-05-10T09:37:46;7.45;;;4.90;;
64598;SDS011;51008;51.504;11.548;2023-05-10T09:42:58;6.57;;;4.88;;
64598;SDS011;51008;51.504;11.548;2023-05-10T09:48:08;8.07;;;5.13;;
64598;SDS011;51008;51.504;11.548;2023-05-10T09:53:10;12.00;;;4.80;;
64598;SDS011;51008;51.504;11.548;2023-05-10T09:58:15;8.02;;;5.30;;
64598;SDS011;51008;51.504;11.548;2023-05-10T10:03:16;7.47;;;5.00;;
64598;SDS011;51008;51.504;11.548;2023-05-10T10:08:19;8.82;;;5.15;;
64598;SDS011;51008;51.504;11.548;2023-05-10T10:13:20;7.78;;;5.22;;
64598;SDS011;51008;51.504;11.548;2023-05-10T10:18:21;8.57;;;5.30;;
64598;SDS011;51008;51.504;11.548;2023-05-10T10:23:22;8.48;;;4.45;;
64598;SDS011;51008;51.504;11.548;2023-05-10T10:28:25;9.18;;;5.32;;
64598;SDS011;51008;51.504;11.548;2023-05-10T10:38:54;7.82;;;4.72;;
64598;SDS011;51008;51.504;11.548;2023-05-10T10:49:22;8.35;;;4.85;;
64598;SDS011;51008;51.504;11.548;2023-05-10T10:54:27;6.63;;;4.80;;
64598;SDS011;51008;51.504;11.548;2023-05-10T10:59:28;6.90;;;4.90;;
64598;SDS011;51008;51.504;11.548;2023-05-10T11:04:31;7.68;;;5.05;;
64598;SDS011;51008;51.504;11.548;2023-05-10T11:09:42;6.32;;;4.85;;
64598;SDS011;51008;51.504;11.548;2023-05-10T11:14:50;5.93;;;4.25;;
64598;SDS011;51008;51.504;11.548;2023-05-10T11:20:07;6.50;;;4.50;;
64598;SDS011;51008;51.504;11.548;2023-05-10T11:25:09;6.50;;;4.63;;
64598;SDS011;51008;51.504;11.548;2023-05-10T11:30:10;5.75;;;3.90;;
64598;SDS011;51008;51.504;11.548;2023-05-10T11:35:12;5.53;;;4.10;;
64598;SDS011;51008;51.504;11.548;2023-05-10T11:40:13;6.13;;;3.15;;
64598;SDS011;51008;51.504;11.548;2023-05-10T11:45:14;4.13;;;2.85;;
64598;SDS011;51008;51.504;11.548;2023-05-10T11:50:15;5.07;;;2.90;;
64598;SDS011;51008;51.504;11.548;2023-05-10T11:55:17;5.00;;;3.53;;
64598;SDS011;51008;51.504;11.548;2023-05-10T12:00:18;8.65;;;5.75;;
64598;SDS011;51008;51.504;11.548;2023-05-10T12:05:20;5.32;;;3.90;;
64598;SDS011;51008;51.504;11.548;2023-05-10T12:10:25;5.00;;;3.28;;
64598;SDS011;51008;51.504;11.548;2023-05-10T12:15:27;4.40;;;2.90;;
64598;SDS011;51008;51.504;11.548;2023-05-10T12:20:28;7.55;;;3.85;;
64598;SDS011;51008;51.504;11.548;2023-05-10T12:25:30;3.95;;;3.15;;
64598;SDS011;51008;51.504;11.548;2023-05-10T12:30:33;4.38;;;2.75;;
64598;SDS011;51008;51.504;11.548;2023-05-10T12:35:51;3.15;;;2.40;;
64598;SDS011;51008;51.504;11.548;2023-05-10T12:40:58;4.15;;;2.80;;
64598;SDS011;51008;51.504;11.548;2023-05-10T12:46:34;2.92;;;2.10;;
64598;SDS011;51008;51.504;11.548;2023-05-10T12:51:28;2.53;;;1.35;;
64598;SDS011;51008;51.504;11.548;2023-05-10T12:56:29;1.58;;;1.30;;
64598;SDS011;51008;51.504;11.548;2023-05-10T13:01:30;2.05;;;1.65;;
64598;SDS011;51008;51.504;11.548;2023-05-10T13:06:31;1.65;;;1.20;;
64598;SDS011;51008;51.504;11.548;2023-05-10T13:11:32;1.30;;;1.20;;
64598;SDS011;51008;51.504;11.548;2023-05-10T13:16:33;2.97;;;2.00;;
64598;SDS011;51008;51.504;11.548;2023-05-10T13:21:34;4.20;;;2.40;;
64598;SDS011;51008;51.504;11.548;2023-05-10T13:26:35;2.92;;;2.00;;
64598;SDS011;51008;51.504;11.548;2023-05-10T13:31:36;4.45;;;2.25;;
64598;SDS011;51008;51.504;11.548;2023-05-10T13:36:37;2.95;;;2.17;;
64598;SDS011;51008;51.504;11.548;2023-05-10T13:41:38;3.20;;;2.28;;
64598;SDS011;51008;51.504;11.548;2023-05-10T13:46:39;4.50;;;2.30;;
64598;SDS011;51008;51.504;11.548;2023-05-10T13:51:40;2.97;;;1.92;;
64598;SDS011;51008;51.504;11.548;2023-05-10T13:56:41;5.90;;;2.20;;
64598;SDS011;51008;51.504;11.548;2023-05-10T14:01:42;2.78;;;1.85;;
64598;SDS011;51008;51.504;11.548;2023-05-10T14:06:43;3.40;;;2.10;;
64598;SDS011;51008;51.504;11.548;2023-05-10T14:11:45;4.13;;;2.38;;
64598;SDS011;51008;51.504;11.548;2023-05-10T14:16:46;3.25;;;2.15;;
64598;SDS011;51008;51.504;11.548;2023-05-10T14:21:47;3.15;;;2.17;;
64598;SDS011;51008;51.504;11.548;2023-05-10T14:26:48;3.08;;;2.15;;
64598;SDS011;51008;51.504;11.548;2023-05-10T14:31:49;3.53;;;1.77;;
64598;SDS011;51008;51.504;11.548;2023-05-10T14:36:50;2.83;;;1.83;;
64598;SDS011;51008;51.504;11.548;2023-05-10T14:41:51;3.03;;;2.15;;
64598;SDS011;51008;51.504;11.548;2023-05-10T14:46:52;3.83;;;2.10;;
64598;SDS011;51008;51.504;11.548;2023-05-10T14:51:53;4.28;;;2.30;;
64598;SDS011;51008;51.504;11.548;2023-05-10T14:56:54;3.42;;;2.33;;
64598;SDS011;51008;51.504;11.548;2023-05-10T15:01:55;3.47;;;2.60;;
64598;SDS011;51008;51.504;11.548;2023-05-10T15:06:56;3.78;;;2.33;;
64598;SDS011;51008;51.504;11.548;2023-05-10T15:11:57;7.50;;;4.07;;
64598;SDS011;51008;51.504;11.548;2023-05-10T15:16:58;7.60;;;3.65;;
64598;SDS011;51008;51.504;11.548;2023-05-10T15:21:59;7.10;;;3.38;;
64598;SDS011;51008;51.504;11.548;2023-05-10T15:27:00;5.45;;;3.33;;
64598;SDS011;51008;51.504;11.548;2023-05-10T15:32:01;5.45;;;3.17;;
64598;SDS011;51008;51.504;11.548;2023-05-10T15:37:02;5.97;;;3.40;;
64598;SDS011;51008;51.504;11.548;2023-05-10T15:42:03;4.72;;;3.30;;
64598;SDS011;51008;51.504;11.548;2023-05-10T15:47:04;5.53;;;3.00;;
64598;SDS011;51008;51.504;11.548;2023-05-10T15:52:05;5.90;;;3.38;;
64598;SDS011;51008;51.504;11.548;2023-05-10T15:57:06;5.75;;;3.03;;
64598;SDS011;51008;51.504;11.548;2023-05-10T16:02:08;4.15;;;3.00;;
64598;SDS011;51008;51.504;11.548;2023-05-10T16:07:09;6.65;;;3.75;;
64598;SDS011;51008;51.504;11.548;2023-05-10T16:12:10;4.65;;;3.30;;
64598;SDS011;51008;51.504;11.548;2023-05-10T16:17:11;4.85;;;3.22;;
64598;SDS011;51008;51.504;11.548;2023-05-10T16:22:13;4.65;;;3.25;;
64598;SDS011;51008;51.504;11.548;2023-05-10T16:27:17;4.63;;;2.90;;
64598;SDS011;51008;51.504;11.548;2023-05-10T16:32:18;5.97;;;3.15;;
64598;SDS011;51008;51.504;11.548;2023-05-10T16:37:19;4.10;;;2.90;;
64598;SDS011;51008;51.504;11.548;2023-05-10T16:42:20;5.75;;;3.42;;
64598;SDS011;51008;51.504;11.548;2023-05-10T16:47:21;5.78;;;3.60;;
64598;SDS011;51008;51.504;11.548;2023-05-10T16:52:22;6.40;;;4.10;;
64598;SDS011;51008;51.504;11.548;2023-05-10T16:57:22;5.47;;;3.47;;
64598;SDS011;51008;51.504;11.548;2023-05-10T17:02:23;8.27;;;3.60;;
64598;SDS011;51008;51.504;11.548;2023-05-10T17:07:24;6.38;;;3.85;;
64598;SDS011;51008;51.504;11.548;2023-05-10T17:12:25;8.77;;;4.75;;
64598;SDS011;51008;51.504;11.548;2023-05-10T17:17:26;5.80;;;4.30;;
64598;SDS011;51008;51.504;11.548;2023-05-10T17:22:27;6.30;;;4.53;;
64598;SDS011;51008;51.504;11.548;2023-05-10T17:27:28;7.60;;;5.15;;
64598;SDS011;51008;51.504;11.548;2023-05-10T17:32:29;7.75;;;5.53;;
64598;SDS011;51008;51.504;11.548;2023-05-10T17:37:30;7.22;;;5.07;;
64598;SDS011;51008;51.504;11.548;2023-05-10T17:42:33;8.90;;;4.55;;
64598;SDS011;51008;51.504;11.548;2023-05-10T17:47:34;6.63;;;5.05;;
64598;SDS011;51008;51.504;11.548;2023-05-10T17:52:35;7.15;;;5.70;;
64598;SDS011;51008;51.504;11.548;2023-05-10T17:57:36;7.28;;;5.65;;
64598;SDS011;51008;51.504;11.548;2023-05-10T18:02:37;7.03;;;5.13;;
64598;SDS011;51008;51.504;11.548;2023-05-10T18:07:38;10.00;;;5.88;;
64598;SDS011;51008;51.504;11.548;2023-05-10T18:12:39;7.60;;;5.25;;
64598;SDS011;51008;51.504;11.548;2023-05-10T18:17:40;8.32;;;5.88;;
64598;SDS011;51008;51.504;11.548;2023-05-10T18:22:41;8.23;;;4.95;;
64598;SDS011;51008;51.504;11.548;2023-05-10T18:27:42;8.02;;;5.10;;
64598;SDS011;51008;51.504;11.548;2023-05-10T18:32:43;5.85;;;4.60;;
64598;SDS011;51008;51.504;11.548;2023-05-10T18:37:44;8.05;;;5.13;;
64598;SDS011;51008;51.504;11.548;2023-05-10T18:42:45;7.13;;;4.70;;
64598;SDS011;51008;51.504;11.548;2023-05-10T18:47:46;5.20;;;4.13;;
64598;SDS011;51008;51.504;11.548;2023-05-10T18:52:47;9.82;;;3.75;;
64598;SDS011;51008;51.504;11.548;2023-05-10T18:57:48;7.32;;;3.70;;
64598;SDS011;51008;51.504;11.548;2023-05-10T19:02:49;4.63;;;3.15;;
64598;SDS011;51008;51.504;11.548;2023-05-10T19:07:50;7.88;;;4.18;;
64598;SDS011;51008;51.504;11.548;2023-05-10T19:12:51;4.65;;;3.10;;
64598;SDS011;51008;51.504;11.548;2023-05-10T19:17:52;4.60;;;3.15;;
64598;SDS011;51008;51.504;11.548;2023-05-10T19:22:53;6.28;;;4.03;;
64598;SDS011;51008;51.504;11.548;2023-05-10T19:27:54;5.97;;;3.88;;
64598;SDS011;51008;51.504;11.548;2023-05-10T19:32:55;6.03;;;4.28;;
64598;SDS011;51008;51.504;11.548;2023-05-10T19:37:57;6.20;;;4.40;;
64598;SDS011;51008;51.504;11.548;2023-05-10T19:42:58;7.13;;;4.65;;
64598;SDS011;51008;51.504;11.548;2023-05-10T19:47:59;5.70;;;4.07;;
64598;SDS011;51008;51.504;11.548;2023-05-10T19:53:00;5.00;;;3.63;;
64598;SDS011;51008;51.504;11.548;2023-05-10T19:58:01;4.70;;;3.70;;
64598;SDS011;51008;51.504;11.548;2023-05-10T20:03:02;6.38;;;4.53;;
64598;SDS011;51008;51.504;11.548;2023-05-10T20:08:03;8.07;;;4.32;;
64598;SDS011;51008;51.504;11.548;2023-05-10T20:13:04;6.97;;;4.13;;
64598;SDS011;51008;51.504;11.548;2023-05-10T20:18:05;6.15;;;4.50;;
64598;SDS011;51008;51.504;11.548;2023-05-10T20:23:06;8.13;;;4.13;;
64598;SDS011;51008;51.504;11.548;2023-05-10T20:28:07;6.18;;;3.50;;
64598;SDS011;51008;51.504;11.548;2023-05-10T20:33:08;3.97;;;2.78;;
64598;SDS011;51008;51.504;11.548;2023-05-10T20:38:09;4.72;;;2.95;;
64598;SDS011;51008;51.504;11.548;2023-05-10T20:43:13;3.33;;;1.85;;
64598;SDS011;51008;51.504;11.548;2023-05-10T20:48:14;4.95;;;1.85;;
64598;SDS011;51008;51.504;11.548;2023-05-10T20:53:15;3.33;;;1.65;;
64598;SDS011;51008;51.504;11.548;2023-05-10T20:58:16;3.40;;;2.10;;
64598;SDS011;51008;51.504;11.548;2023-05-10T21:03:17;3.63;;;2.15;;
64598;SDS011;51008;51.504;11.548;2023-05-10T21:08:18;4.45;;;2.30;;
64598;SDS011;51008;51.504;11.548;2023-05-10T21:13:19;4.05;;;2.13;;
64598;SDS011;51008;51.504;11.548;2023-05-10T21:18:20;3.65;;;2.08;;
64598;SDS011;51008;51.504;11.548;2023-05-10T21:23:21;5.07;;;2.17;;
64598;SDS011;51008;51.504;11.548;2023-05-10T21:28:22;7.20;;;2.65;;
64598;SDS011;51008;51.504;11.548;2023-05-10T21:33:23;5.45;;;3.30;;
64598;SDS011;51008;51.504;11.548;2023-05-10T21:38:25;8.13;;;3.85;;
64598;SDS011;51008;51.504;11.548;2023-05-10T21:43:27;7.93;;;4.53;;
64598;SDS011;51008;51.504;11.548;2023-05-10T21:48:28;10.05;;;4.80;;
64598;SDS011;51008;51.504;11.548;2023-05-10T21:53:29;9.50;;;4.97;;
64598;SDS011;51008;51.504;11.548;2023-05-10T21:58:30;8.00;;;5.32;;
64598;SDS011;51008;51.504;11.548;2023-05-10T22:03:31;11.40;;;5.55;;
64598;SDS011;51008;51.504;11.548;2023-05-10T22:08:32;12.80;;;5.70;;
64598;SDS011;51008;51.504;11.548;2023-05-10T22:13:32;8.80;;;5.20;;
64598;SDS011;51008;51.504;11.548;2023-05-10T22:18:33;7.90;;;5.25;;
64598;SDS011;51008;51.504;11.548;2023-05-10T22:23:34;10.30;;;5.00;;
64598;SDS011;51008;51.504;11.548;2023-05-10T22:28:35;12.05;;;6.03;;
64598;SDS011;51008;51.504;11.548;2023-05-10T22:33:36;10.40;;;5.40;;
64598;SDS011;51008;51.504;11.548;2023-05-10T22:38:37;9.23;;;5.90;;
64598;SDS011;51008;51.504;11.548;2023-05-10T22:43:38;9.13;;;5.10;;
64598;SDS011;51008;51.504;11.548;2023-05-10T22:48:39;12.00;;;5.95;;
64598;SDS011;51008;51.504;11.548;2023-05-10T22:53:41;9.07;;;5.05;;
64598;SDS011;51008;51.504;11.548;2023-05-10T22:58:42;10.27;;;4.85;;
64598;SDS011;51008;51.504;11.548;2023-05-10T23:03:43;8.43;;;4.65;;
64598;SDS011;51008;51.504;11.548;2023-05-10T23:08:44;8.57;;;4.03;;
64598;SDS011;51008;51.504;11.548;2023-05-10T23:13:45;5.53;;;3.63;;
64598;SDS011;51008;51.504;11.548;2023-05-10T23:18:46;7.07;;;3.63;;
64598;SDS011;51008;51.504;11.548;2023-05-10T23:23:47;8.32;;;4.30;;
64598;SDS011;51008;51.504;11.548;2023-05-10T23:28:48;6.82;;;3.65;;
64598;SDS011;51008;51.504;11.548;2023-05-10T23:33:49;8.57;;;3.95;;
64598;SDS011;51008;51.504;11.548;2023-05-10T23:38:50;6.80;;;3.80;;
64598;SDS011;51008;51.504;11.548;2023-05-10T23:43:51;8.02;;;4.10;;
64598;SDS011;51008;51.504;11.548;2023-05-10T23:48:51;6.95;;;3.70;;
64598;SDS011;51008;51.504;11.548;2023-05-10T23:53:52;9.82;;;5.00;;
64598;SDS011;51008;51.504;11.548;2023-05-10T23:58:53;9.10;;;5.10;;
